Terminal Aerodrome Forecast
Issued by NWS

Home | Current Version | Previous Version | Text Only | Print | Product List | Glossary On
Versions: 1 2 3 4 5 6 7 8 9 10 11 12 13
139
FTUS45 KFGZ 272337
TAFGCN
TAF
KGCN 272337Z 2800/2824 22015G22KT P6SM -SHRA BKN060 BKN100
      TEMPO 2800/2804 5SM -TSRA BKN045CB
     FM280400 27008KT P6SM VCSH BKN025 OVC040
      TEMPO 2804/2808 4SM -SHSN OVC020
     FM281200 35013G23KT P6SM SCT040=

USA.gov is the U.S. government's official web portal to all federal, state and local government web resources and services.